createdAt,value
2018-03-31T00:01:15.962Z,7.04
2018-03-31T00:03:42.957Z,7.02
2018-03-31T00:06:09.961Z,7.01
2018-03-31T00:08:37.278Z,6.98
2018-03-31T00:11:04.281Z,6.98
2018-03-31T00:13:31.319Z,7.00
2018-03-31T00:15:58.506Z,6.98
2018-03-31T00:18:25.510Z,6.95
2018-03-31T00:20:52.517Z,6.94
2018-03-31T00:23:19.841Z,6.89
2018-03-31T00:25:46.843Z,6.84
2018-03-31T00:28:13.860Z,6.81
2018-03-31T00:30:40.854Z,6.79
2018-03-31T00:33:07.856Z,6.78
2018-03-31T00:35:35.007Z,6.77
2018-03-31T00:38:02.014Z,6.73
2018-03-31T00:40:29.022Z,6.71
2018-03-31T00:42:56.337Z,6.68
2018-03-31T00:45:23.346Z,6.70
2018-03-31T00:47:50.361Z,6.71
2018-03-31T00:50:17.466Z,6.72
2018-03-31T00:52:44.476Z,6.71
2018-03-31T00:55:11.484Z,6.72
2018-03-31T00:57:38.567Z,6.70
2018-03-31T01:00:05.574Z,6.71
2018-03-31T01:02:32.578Z,6.72
2018-03-31T01:04:59.754Z,6.70
2018-03-31T01:07:26.772Z,6.71
2018-03-31T01:09:53.766Z,6.75
2018-03-31T01:12:20.822Z,6.76
2018-03-31T01:14:47.839Z,6.77
2018-03-31T01:17:14.843Z,6.82
2018-03-31T01:19:41.882Z,6.83
2018-03-31T01:22:08.886Z,6.86
2018-03-31T01:24:35.921Z,6.88
2018-03-31T01:27:02.955Z,6.89
2018-03-31T01:29:29.949Z,6.90
2018-03-31T01:31:56.954Z,6.87
2018-03-31T01:34:24.005Z,6.87
2018-03-31T01:36:51.011Z,6.84
2018-03-31T01:39:18.010Z,6.81
2018-03-31T01:41:45.050Z,6.75
2018-03-31T01:44:12.062Z,6.75
2018-03-31T01:46:39.078Z,6.70
2018-03-31T01:49:06.114Z,6.68
2018-03-31T01:51:33.110Z,6.64
2018-03-31T01:54:00.111Z,6.61
2018-03-31T01:56:27.259Z,6.58
2018-03-31T01:58:54.262Z,6.56
2018-03-31T02:01:21.256Z,6.53
2018-03-31T02:03:48.304Z,6.49
2018-03-31T02:06:15.302Z,6.46
2018-03-31T02:08:42.370Z,6.46
2018-03-31T02:11:09.413Z,6.43
2018-03-31T02:13:36.413Z,6.43
2018-03-31T02:16:03.422Z,6.41
2018-03-31T02:18:30.467Z,6.41
2018-03-31T02:20:57.476Z,6.43
2018-03-31T02:23:24.473Z,6.44
2018-03-31T02:25:51.560Z,6.47
2018-03-31T02:28:18.561Z,6.49
2018-03-31T02:30:45.567Z,6.48
2018-03-31T02:33:12.758Z,6.49
2018-03-31T02:35:39.770Z,6.51
2018-03-31T02:38:06.766Z,6.50
2018-03-31T02:40:33.919Z,6.50
2018-03-31T02:43:00.922Z,6.50
2018-03-31T02:45:27.936Z,6.52
2018-03-31T02:47:54.980Z,6.53
2018-03-31T02:50:21.982Z,6.51
2018-03-31T02:52:49.926Z,6.50
2018-03-31T02:55:17.101Z,6.46
2018-03-31T02:57:44.114Z,6.42
2018-03-31T03:00:11.799Z,6.40
2018-03-31T03:02:39.301Z,6.41
2018-03-31T03:05:06.320Z,6.41
2018-03-31T03:07:33.339Z,6.40
2018-03-31T03:10:00.394Z,6.39
2018-03-31T03:12:27.402Z,6.44
2018-03-31T03:14:54.419Z,6.43
2018-03-31T03:17:21.478Z,6.41
2018-03-31T03:19:48.476Z,6.40
2018-03-31T03:22:15.486Z,6.39
2018-03-31T03:24:42.947Z,6.38
2018-03-31T03:27:09.946Z,6.40
2018-03-31T03:29:36.963Z,6.41
2018-03-31T03:32:04.019Z,6.40
2018-03-31T03:34:31.031Z,6.40
2018-03-31T03:36:58.067Z,6.38
2018-03-31T03:39:25.141Z,6.36
2018-03-31T03:41:52.149Z,6.36
2018-03-31T03:44:19.161Z,6.34
2018-03-31T03:46:46.198Z,6.33
2018-03-31T03:49:13.206Z,6.31
2018-03-31T03:51:40.210Z,6.31
2018-03-31T03:54:07.390Z,6.31
2018-03-31T03:56:34.398Z,6.34
2018-03-31T03:59:01.421Z,6.37
2018-03-31T04:01:28.501Z,6.36
2018-03-31T04:03:55.497Z,6.36
2018-03-31T04:06:22.507Z,6.36
2018-03-31T04:08:49.981Z,6.41
2018-03-31T04:11:16.997Z,6.44
2018-03-31T04:13:44.002Z,6.49
2018-03-31T04:16:11.129Z,6.51
2018-03-31T04:18:38.130Z,6.51
2018-03-31T04:21:05.144Z,6.54
2018-03-31T04:23:32.185Z,6.57
2018-03-31T04:25:59.200Z,6.61
2018-03-31T04:28:26.216Z,6.68
2018-03-31T04:30:53.220Z,6.71
2018-03-31T04:33:20.261Z,6.78
2018-03-31T04:35:47.426Z,6.85
2018-03-31T04:38:14.449Z,6.95
2018-03-31T04:40:41.451Z,7.02
2018-03-31T04:43:08.593Z,7.11
2018-03-31T04:45:35.601Z,7.19
2018-03-31T04:48:02.618Z,7.30
2018-03-31T04:50:29.777Z,7.38
2018-03-31T04:52:56.817Z,7.47
2018-03-31T04:55:23.830Z,7.59
2018-03-31T04:57:50.865Z,7.67
2018-03-31T05:00:17.874Z,7.78
2018-03-31T05:02:44.919Z,7.87
2018-03-31T05:05:12.144Z,7.94
2018-03-31T05:07:39.182Z,8.11
2018-03-31T05:10:06.197Z,8.28
2018-03-31T05:12:33.261Z,8.40
2018-03-31T05:15:00.286Z,8.54
2018-03-31T05:17:27.333Z,8.65
2018-03-31T05:19:54.849Z,8.78
2018-03-31T05:22:21.858Z,8.85
2018-03-31T05:24:48.861Z,8.98
2018-03-31T05:27:15.899Z,9.05
2018-03-31T05:29:42.918Z,9.14
2018-03-31T05:32:09.932Z,9.12
2018-03-31T05:34:37.151Z,9.25
2018-03-31T05:37:04.161Z,9.39
2018-03-31T05:39:31.175Z,9.56
2018-03-31T05:41:58.388Z,9.66
2018-03-31T05:44:25.404Z,9.63
2018-03-31T05:46:52.434Z,9.45
2018-03-31T05:49:19.833Z,9.35
2018-03-31T05:51:46.845Z,9.23
2018-03-31T05:54:13.882Z,9.17
2018-03-31T05:56:41.042Z,9.07
2018-03-31T05:59:08.047Z,9.02
2018-03-31T06:01:35.050Z,8.97
2018-03-31T06:04:02.234Z,8.98
2018-03-31T06:06:29.248Z,9.01
2018-03-31T06:08:56.289Z,9.01
2018-03-31T06:11:23.422Z,9.02
2018-03-31T06:13:50.435Z,9.05
2018-03-31T06:16:17.464Z,9.09
2018-03-31T06:18:44.494Z,9.10
2018-03-31T06:21:11.541Z,9.15
2018-03-31T06:23:38.533Z,9.27
2018-03-31T06:26:05.766Z,9.30
2018-03-31T06:28:32.778Z,9.43
2018-03-31T06:30:59.790Z,9.49
2018-03-31T06:33:26.858Z,9.60
2018-03-31T06:35:53.865Z,9.58
2018-03-31T06:38:20.886Z,9.80
2018-03-31T06:40:47.931Z,10.02
2018-03-31T06:43:14.942Z,10.15
2018-03-31T06:45:41.966Z,10.36
2018-03-31T06:48:09.154Z,10.63
2018-03-31T06:50:36.165Z,10.97
2018-03-31T06:53:03.195Z,11.38
2018-03-31T06:55:30.239Z,11.65
2018-03-31T06:57:57.254Z,11.99
2018-03-31T07:00:24.280Z,12.02
2018-03-31T07:02:51.611Z,12.12
2018-03-31T07:05:18.647Z,11.90
2018-03-31T07:07:45.651Z,12.01
2018-03-31T07:10:12.844Z,11.56
2018-03-31T07:12:39.881Z,11.28
2018-03-31T07:15:06.908Z,11.24
2018-03-31T07:17:34.057Z,11.21
2018-03-31T07:20:01.071Z,11.26
2018-03-31T07:22:28.081Z,11.33
2018-03-31T07:24:55.143Z,11.55
2018-03-31T07:27:22.158Z,11.48
2018-03-31T07:29:49.190Z,11.54
2018-03-31T07:32:16.223Z,11.54
2018-03-31T07:34:43.232Z,11.56
2018-03-31T07:37:10.260Z,11.66
2018-03-31T07:39:37.312Z,11.81
2018-03-31T07:42:04.321Z,11.80
2018-03-31T07:44:31.332Z,11.92
2018-03-31T07:46:58.494Z,11.92
2018-03-31T07:49:25.507Z,12.09
2018-03-31T07:51:52.516Z,12.20
2018-03-31T07:54:19.550Z,12.37
2018-03-31T07:56:46.563Z,12.53
2018-03-31T07:59:13.588Z,12.68
2018-03-31T08:01:40.651Z,12.94
2018-03-31T08:04:07.664Z,13.06
2018-03-31T08:06:34.668Z,13.31
2018-03-31T08:09:01.875Z,13.38
2018-03-31T08:11:28.897Z,13.59
2018-03-31T08:13:55.950Z,13.41
2018-03-31T08:16:23.298Z,13.67
2018-03-31T08:18:50.316Z,13.73
2018-03-31T08:21:17.334Z,13.50
2018-03-31T08:23:44.670Z,13.98
2018-03-31T08:26:11.684Z,14.13
2018-03-31T08:28:38.698Z,14.25
2018-03-31T08:31:05.714Z,14.40
2018-03-31T08:33:32.727Z,14.68
2018-03-31T08:36:00.113Z,14.78
2018-03-31T08:38:27.126Z,15.06
2018-03-31T08:40:54.143Z,14.98
2018-03-31T08:43:21.517Z,15.19
2018-03-31T08:52:30.070Z,15.16
2018-03-31T08:54:57.076Z,15.44
2018-03-31T08:57:24.087Z,15.38
2018-03-31T08:59:51.182Z,15.26
2018-03-31T09:02:18.202Z,15.70
2018-03-31T09:04:45.221Z,15.91
2018-03-31T09:07:12.308Z,16.05
2018-03-31T09:09:39.337Z,16.12
2018-03-31T09:12:06.362Z,15.66
2018-03-31T09:14:33.556Z,15.38
2018-03-31T09:17:00.566Z,15.29
2018-03-31T09:19:27.586Z,15.43
2018-03-31T09:21:54.744Z,15.58
2018-03-31T09:24:21.745Z,15.63
2018-03-31T09:26:48.780Z,15.74
2018-03-31T09:29:15.850Z,15.91
2018-03-31T09:31:42.893Z,16.00
2018-03-31T09:34:09.896Z,16.16
2018-03-31T09:36:37.120Z,16.20
2018-03-31T09:39:04.166Z,16.51
2018-03-31T09:41:31.185Z,16.82
2018-03-31T09:43:58.377Z,16.92
2018-03-31T09:46:25.395Z,16.85
2018-03-31T09:48:52.402Z,17.10
2018-03-31T09:51:19.450Z,16.88
2018-03-31T09:53:46.498Z,16.93
2018-03-31T09:56:13.515Z,17.13
2018-03-31T09:58:40.560Z,17.30
2018-03-31T10:01:07.584Z,17.40
2018-03-31T10:03:34.601Z,17.38
2018-03-31T10:06:01.713Z,17.41
2018-03-31T10:08:28.691Z,17.61
2018-03-31T10:10:55.695Z,17.92
2018-03-31T10:13:22.721Z,18.29
2018-03-31T10:15:49.723Z,18.53
2018-03-31T10:18:16.735Z,18.47
2018-03-31T10:20:43.920Z,18.65
2018-03-31T10:23:10.924Z,18.91
2018-03-31T10:25:37.938Z,19.24
2018-03-31T10:28:05.133Z,19.29
2018-03-31T10:30:32.141Z,19.55
2018-03-31T10:32:59.148Z,19.63
2018-03-31T10:35:26.291Z,19.79
2018-03-31T10:37:53.343Z,19.86
2018-03-31T10:40:20.461Z,20.04
2018-03-31T10:42:47.498Z,20.14
2018-03-31T10:45:14.513Z,20.31
2018-03-31T10:47:41.539Z,20.55
2018-03-31T10:50:08.715Z,20.78
2018-03-31T10:52:35.759Z,20.86
2018-03-31T10:55:02.770Z,21.06
2018-03-31T10:57:29.843Z,21.11
2018-03-31T10:59:56.866Z,21.35
2018-03-31T11:02:23.915Z,21.60
2018-03-31T11:04:51.109Z,21.83
2018-03-31T11:07:18.134Z,21.74
2018-03-31T11:09:45.147Z,21.86
2018-03-31T11:12:12.366Z,22.19
2018-03-31T11:14:39.414Z,22.10
2018-03-31T11:17:06.434Z,22.44
2018-03-31T11:19:33.502Z,22.46
2018-03-31T11:22:00.523Z,22.38
2018-03-31T11:24:27.547Z,22.36
2018-03-31T11:26:54.606Z,22.27
2018-03-31T11:29:21.612Z,22.40
2018-03-31T11:31:48.645Z,22.65
2018-03-31T11:34:15.808Z,22.64
2018-03-31T11:36:43.370Z,22.65
2018-03-31T11:39:10.373Z,22.68
2018-03-31T11:41:37.542Z,22.37
2018-03-31T11:44:04.553Z,22.14
2018-03-31T11:46:31.569Z,22.20
2018-03-31T11:48:58.924Z,22.25
2018-03-31T11:51:25.934Z,22.08
2018-03-31T11:53:52.937Z,22.00
2018-03-31T11:56:20.142Z,22.06
2018-03-31T11:58:47.146Z,21.99
2018-03-31T12:01:14.173Z,21.84
2018-03-31T12:03:41.497Z,21.90
2018-03-31T12:06:08.522Z,21.65
2018-03-31T12:08:35.530Z,21.90
2018-03-31T12:11:02.719Z,22.14
2018-03-31T12:13:29.749Z,22.38
2018-03-31T12:15:56.774Z,22.70
2018-03-31T12:18:23.970Z,22.76
2018-03-31T12:20:50.982Z,22.46
2018-03-31T12:23:17.995Z,22.22
2018-03-31T12:25:45.029Z,21.86
2018-03-31T12:28:12.041Z,21.91
2018-03-31T12:30:39.042Z,22.03
2018-03-31T12:33:06.082Z,22.00
2018-03-31T12:35:33.103Z,22.07
2018-03-31T12:38:00.120Z,21.86
2018-03-31T12:40:27.292Z,21.89
2018-03-31T12:42:54.308Z,21.98
2018-03-31T12:45:21.332Z,21.95
2018-03-31T12:47:48.526Z,22.04
2018-03-31T12:50:15.545Z,22.07
2018-03-31T12:52:42.562Z,22.12
2018-03-31T12:55:09.610Z,21.92
2018-03-31T12:57:36.623Z,21.90
2018-03-31T13:00:03.636Z,21.90
2018-03-31T13:02:30.763Z,21.84
2018-03-31T13:04:57.777Z,21.59
2018-03-31T13:07:24.777Z,21.38
2018-03-31T13:09:51.959Z,21.58
2018-03-31T13:12:18.967Z,21.60
2018-03-31T13:14:46.007Z,21.31
2018-03-31T13:17:13.038Z,21.39
2018-03-31T13:19:40.046Z,21.55
2018-03-31T13:22:07.089Z,21.57
2018-03-31T13:24:34.304Z,21.53
2018-03-31T13:27:01.311Z,21.70
2018-03-31T13:29:28.333Z,21.60
2018-03-31T13:31:55.341Z,21.75
2018-03-31T13:34:22.362Z,21.81
2018-03-31T13:36:49.850Z,21.71
2018-03-31T13:39:16.854Z,21.22
2018-03-31T13:41:43.881Z,21.35
2018-03-31T13:44:10.926Z,21.38
2018-03-31T13:46:37.977Z,21.32
2018-03-31T13:49:04.992Z,21.07
2018-03-31T13:51:32.394Z,21.06
2018-03-31T13:53:59.391Z,21.16
2018-03-31T13:56:26.387Z,21.22
2018-03-31T13:58:53.466Z,21.10
2018-03-31T14:01:20.473Z,21.23
2018-03-31T14:03:47.481Z,21.25
2018-03-31T14:06:14.628Z,21.39
2018-03-31T14:08:41.647Z,21.32
2018-03-31T14:11:08.658Z,21.31
2018-03-31T14:13:35.741Z,21.30
2018-03-31T14:16:02.738Z,21.26
2018-03-31T14:18:29.742Z,20.97
2018-03-31T14:20:56.938Z,20.77
2018-03-31T14:23:23.938Z,20.88
2018-03-31T14:25:50.949Z,20.84
2018-03-31T14:28:18.098Z,20.78
2018-03-31T14:30:45.106Z,20.70
2018-03-31T14:33:12.117Z,20.77
2018-03-31T14:35:39.263Z,20.59
2018-03-31T14:38:06.301Z,20.42
2018-03-31T14:40:33.311Z,20.38
2018-03-31T14:43:01.369Z,20.26
2018-03-31T14:45:28.399Z,20.06
2018-03-31T14:47:55.422Z,20.07
2018-03-31T14:50:22.468Z,19.98
2018-03-31T14:52:49.486Z,19.93
2018-03-31T14:55:16.518Z,19.94
2018-03-31T14:57:43.585Z,20.01
2018-03-31T15:00:10.587Z,20.08
2018-03-31T15:02:37.649Z,20.10
2018-03-31T15:05:04.703Z,20.18
2018-03-31T15:07:31.704Z,20.20
2018-03-31T15:09:58.713Z,20.18
2018-03-31T15:12:25.755Z,20.15
2018-03-31T15:14:52.785Z,20.09
2018-03-31T15:17:19.799Z,19.96
2018-03-31T15:19:46.995Z,19.82
2018-03-31T15:22:14.026Z,19.76
2018-03-31T15:24:41.057Z,19.65
2018-03-31T15:27:08.184Z,19.59
2018-03-31T15:29:35.266Z,19.55
2018-03-31T15:32:02.250Z,19.44
2018-03-31T15:34:29.298Z,19.43
2018-03-31T15:36:56.306Z,19.37
2018-03-31T15:39:23.348Z,19.29
2018-03-31T15:41:50.420Z,19.20
2018-03-31T15:44:17.426Z,19.16
2018-03-31T15:46:44.422Z,19.07
2018-03-31T15:49:11.493Z,19.04
2018-03-31T15:51:38.506Z,18.96
2018-03-31T15:54:05.514Z,18.94
2018-03-31T15:56:32.571Z,18.89
2018-03-31T15:58:59.592Z,18.82
2018-03-31T16:01:26.594Z,18.77
2018-03-31T16:03:53.781Z,18.66
2018-03-31T16:06:20.797Z,18.60
2018-03-31T16:08:47.814Z,18.60
2018-03-31T16:11:15.006Z,18.60
2018-03-31T16:13:42.045Z,18.58
2018-03-31T16:16:09.066Z,18.55
2018-03-31T16:18:36.105Z,18.50
2018-03-31T16:21:03.120Z,18.46
2018-03-31T16:23:30.159Z,18.45
2018-03-31T16:25:57.203Z,18.40
2018-03-31T16:28:24.210Z,18.35
2018-03-31T16:30:51.235Z,18.25
2018-03-31T16:33:18.734Z,18.19
2018-03-31T16:35:45.764Z,18.13
2018-03-31T16:38:12.783Z,18.09
2018-03-31T16:40:39.827Z,18.06
2018-03-31T16:43:06.837Z,18.01
2018-03-31T16:45:33.851Z,17.95
2018-03-31T16:48:00.904Z,17.94
2018-03-31T16:50:27.924Z,17.87
2018-03-31T16:52:54.951Z,17.90
2018-03-31T16:55:22.036Z,17.89
2018-03-31T16:57:49.088Z,17.84
2018-03-31T17:00:16.116Z,17.81
2018-03-31T17:02:43.447Z,17.82
2018-03-31T17:05:10.466Z,17.82
2018-03-31T17:07:37.476Z,17.80
2018-03-31T17:10:04.901Z,17.77
2018-03-31T17:12:31.917Z,17.74
2018-03-31T17:14:58.929Z,17.70
2018-03-31T17:17:26.126Z,17.68
2018-03-31T17:19:53.143Z,17.70
2018-03-31T17:22:20.154Z,17.70
2018-03-31T17:24:47.211Z,17.77
2018-03-31T17:27:14.222Z,17.79
2018-03-31T17:29:41.229Z,17.79
2018-03-31T17:32:08.237Z,17.81
2018-03-31T17:34:35.251Z,17.82
2018-03-31T17:37:02.329Z,17.75
2018-03-31T17:39:29.340Z,17.78
2018-03-31T17:41:56.350Z,17.74
2018-03-31T17:44:23.398Z,17.73
2018-03-31T17:46:50.414Z,17.72
2018-03-31T17:49:17.437Z,17.79
2018-03-31T17:51:44.788Z,17.82
2018-03-31T17:54:11.794Z,17.77
2018-03-31T17:56:38.797Z,17.69
2018-03-31T17:59:05.904Z,17.67
2018-03-31T18:01:32.929Z,17.74
2018-03-31T18:03:59.940Z,17.77
2018-03-31T18:06:27.284Z,17.72
2018-03-31T18:08:54.292Z,17.70
2018-03-31T18:11:21.328Z,17.70
2018-03-31T18:13:48.369Z,17.46
2018-03-31T18:16:15.395Z,17.38
2018-03-31T18:18:42.405Z,17.50
2018-03-31T18:21:09.740Z,17.05
2018-03-31T18:23:36.783Z,16.30
2018-03-31T18:26:03.800Z,16.05
2018-03-31T18:28:30.981Z,16.18
2018-03-31T18:30:57.999Z,16.07
2018-03-31T18:33:25.007Z,16.06
2018-03-31T18:35:52.202Z,16.25
2018-03-31T18:38:19.216Z,16.40
2018-03-31T18:40:46.234Z,16.42
2018-03-31T18:43:13.265Z,16.34
2018-03-31T18:45:40.279Z,16.42
2018-03-31T18:48:07.286Z,16.57
2018-03-31T18:50:34.329Z,16.35
2018-03-31T18:53:01.337Z,16.41
2018-03-31T18:55:28.354Z,16.35
2018-03-31T18:57:55.409Z,16.30
2018-03-31T19:00:22.416Z,16.33
2018-03-31T19:02:49.720Z,16.35
2018-03-31T19:05:16.777Z,16.30
2018-03-31T19:07:43.790Z,15.94
2018-03-31T19:10:10.797Z,15.54
2018-03-31T19:12:37.989Z,15.34
2018-03-31T19:15:05.010Z,15.33
2018-03-31T19:17:32.036Z,15.13
2018-03-31T19:19:59.105Z,14.90
2018-03-31T19:22:26.132Z,14.88
2018-03-31T19:24:58.748Z,14.70
2018-03-31T19:27:25.837Z,14.50
2018-03-31T19:29:52.851Z,14.37
2018-03-31T19:32:19.886Z,14.25
2018-03-31T19:34:46.930Z,14.11
2018-03-31T19:37:13.961Z,14.35
2018-03-31T19:39:46.385Z,14.25
2018-03-31T19:42:13.451Z,13.96
2018-03-31T19:44:40.480Z,13.77
2018-03-31T19:47:07.506Z,13.61
2018-03-31T19:49:34.568Z,13.49
2018-03-31T19:52:01.596Z,13.35
2018-03-31T19:54:28.614Z,13.15
2018-03-31T19:56:55.682Z,13.02
2018-03-31T19:59:22.722Z,12.90
2018-03-31T20:01:49.741Z,12.79
2018-03-31T20:04:16.934Z,12.87
2018-03-31T20:06:43.942Z,12.96
2018-03-31T20:09:10.962Z,12.96
2018-03-31T20:11:38.124Z,12.98
2018-03-31T20:14:05.130Z,13.07
2018-03-31T20:16:32.142Z,12.97
2018-03-31T20:18:59.212Z,12.86
2018-03-31T20:21:26.223Z,12.89
2018-03-31T20:23:53.241Z,13.03
2018-03-31T20:26:20.306Z,13.41
2018-03-31T20:28:47.326Z,13.34
2018-03-31T20:31:14.345Z,13.22
2018-03-31T20:33:41.542Z,13.06
2018-03-31T20:36:08.578Z,12.98
2018-03-31T20:38:35.599Z,12.84
2018-03-31T20:41:02.811Z,12.78
2018-03-31T20:43:29.962Z,12.86
2018-03-31T20:45:56.978Z,12.78
2018-03-31T20:48:24.028Z,12.80
2018-03-31T20:50:51.040Z,13.04
2018-03-31T20:53:18.069Z,13.30
2018-03-31T20:55:45.126Z,13.85
2018-03-31T20:58:12.134Z,13.96
2018-03-31T21:00:39.142Z,14.21
2018-03-31T21:03:06.340Z,14.26
2018-03-31T21:05:33.365Z,14.17
2018-03-31T21:08:00.378Z,14.27
2018-03-31T21:10:27.509Z,14.43
2018-03-31T21:12:54.515Z,14.45
2018-03-31T21:15:21.541Z,14.37
2018-03-31T21:17:48.581Z,14.18
2018-03-31T21:20:15.618Z,13.87
2018-03-31T21:22:42.629Z,13.88
2018-03-31T21:25:09.697Z,13.76
2018-03-31T21:27:36.693Z,13.65
2018-03-31T21:30:03.710Z,13.77
2018-03-31T21:32:30.720Z,13.72
2018-03-31T21:34:57.735Z,13.62
2018-03-31T21:37:24.770Z,13.48
2018-03-31T21:39:51.774Z,13.26
2018-03-31T21:42:18.782Z,13.06
2018-03-31T21:44:46.116Z,12.82
2018-03-31T21:47:13.126Z,12.55
2018-03-31T21:49:40.569Z,12.31
2018-03-31T21:52:07.610Z,12.18
2018-03-31T21:54:34.621Z,12.05
2018-03-31T21:57:01.640Z,11.97
2018-03-31T21:59:28.841Z,11.88
2018-03-31T22:01:55.884Z,11.76
2018-03-31T22:04:22.899Z,11.70
2018-03-31T22:06:50.095Z,11.59
2018-03-31T22:09:17.115Z,11.48
2018-03-31T22:11:44.116Z,11.36
2018-03-31T22:14:16.841Z,11.25
2018-03-31T22:16:43.870Z,11.14
2018-03-31T22:19:10.886Z,11.08
2018-03-31T22:21:38.079Z,11.08
2018-03-31T22:24:05.102Z,11.10
2018-03-31T22:26:32.125Z,11.14
2018-03-31T22:28:59.335Z,11.13
2018-03-31T22:31:26.356Z,11.17
2018-03-31T22:33:53.367Z,11.24
2018-03-31T22:36:20.397Z,11.18
2018-03-31T22:38:47.402Z,11.10
2018-03-31T22:41:14.417Z,10.95
2018-03-31T22:43:41.466Z,10.89
2018-03-31T22:46:08.470Z,10.86
2018-03-31T22:48:35.481Z,10.78
2018-03-31T22:51:02.673Z,10.78
2018-03-31T22:53:29.672Z,10.74
2018-03-31T22:55:56.685Z,10.68
2018-03-31T22:58:23.822Z,10.69
2018-03-31T23:00:50.833Z,10.62
2018-03-31T23:03:17.844Z,10.61
2018-03-31T23:05:44.885Z,10.59
2018-03-31T23:08:11.903Z,10.65
2018-03-31T23:10:38.928Z,10.66
2018-03-31T23:13:06.127Z,10.72
2018-03-31T23:15:33.137Z,11.56
2018-03-31T23:18:00.138Z,12.17
2018-03-31T23:20:27.341Z,12.21
2018-03-31T23:22:54.367Z,13.19
2018-03-31T23:25:21.374Z,13.66
2018-03-31T23:27:48.442Z,13.97
2018-03-31T23:30:15.437Z,14.47
2018-03-31T23:32:42.440Z,14.82
2018-03-31T23:35:09.625Z,14.98
2018-03-31T23:37:36.653Z,15.16
2018-03-31T23:40:03.666Z,15.20
2018-03-31T23:42:30.814Z,15.27
2018-03-31T23:44:57.849Z,15.27
2018-03-31T23:47:24.869Z,15.33
2018-03-31T23:49:52.018Z,15.53
2018-03-31T23:52:19.034Z,15.75
2018-03-31T23:54:46.044Z,15.71
2018-03-31T23:57:13.082Z,15.62
2018-03-31T23:59:40.098Z,15.69
